createdAt,value
2017-11-09T00:06:52.757Z,42
2017-11-09T00:16:52.591Z,46
2017-11-09T00:26:52.523Z,43
2017-11-09T00:36:52.486Z,45
2017-11-09T00:46:52.463Z,43
2017-11-09T00:56:52.470Z,42
2017-11-09T01:06:52.839Z,42
2017-11-09T01:16:52.606Z,41
2017-11-09T01:26:52.413Z,43
2017-11-09T01:36:53.769Z,44
2017-11-09T01:46:52.505Z,43
2017-11-09T01:56:52.579Z,43
2017-11-09T02:06:52.851Z,45
2017-11-09T02:16:52.608Z,42
2017-11-09T02:26:53.604Z,45
2017-11-09T02:36:53.012Z,46
2017-11-09T02:46:52.554Z,43
2017-11-09T02:56:52.542Z,45
2017-11-09T03:06:53.914Z,44
2017-11-09T03:16:52.551Z,47
2017-11-09T03:26:52.639Z,47
2017-11-09T03:36:52.840Z,45
2017-11-09T03:46:52.702Z,44
2017-11-09T03:56:52.625Z,46
2017-11-09T04:06:53.574Z,44
2017-11-09T04:16:53.652Z,48
2017-11-09T04:26:52.710Z,45
2017-11-09T04:36:53.002Z,46
2017-11-09T04:46:54.625Z,47
2017-11-09T04:56:52.688Z,46
2017-11-09T05:06:52.689Z,46
2017-11-09T05:16:52.712Z,44
2017-11-09T05:26:52.702Z,49
2017-11-09T05:36:52.698Z,43
2017-11-09T05:46:53.764Z,48
2017-11-09T05:56:52.780Z,46
2017-11-09T06:06:53.828Z,43
2017-11-09T06:16:52.806Z,47
2017-11-09T06:26:52.759Z,44
2017-11-09T06:36:52.812Z,47
2017-11-09T06:46:53.840Z,44
2017-11-09T06:56:52.897Z,44
2017-11-09T07:06:53.031Z,45
2017-11-09T07:16:52.805Z,43
2017-11-09T07:26:52.727Z,42
2017-11-09T07:36:53.204Z,44
2017-11-09T07:46:52.844Z,44
2017-11-09T07:56:52.798Z,44
2017-11-09T08:06:53.589Z,41
2017-11-09T08:16:52.954Z,42
2017-11-09T08:26:52.810Z,42
2017-11-09T08:36:52.933Z,39
2017-11-09T08:46:52.854Z,42
2017-11-09T08:56:52.880Z,37
2017-11-09T09:06:53.237Z,38
2017-11-09T09:16:52.878Z,36
2017-11-09T09:26:52.851Z,34
2017-11-09T09:36:53.360Z,34
2017-11-09T09:46:52.922Z,34
2017-11-09T09:56:52.884Z,34
2017-11-09T10:06:52.940Z,34
2017-11-09T10:16:52.910Z,33
2017-11-09T10:26:52.975Z,35
2017-11-09T10:36:52.912Z,38
2017-11-09T10:46:53.587Z,35
2017-11-09T10:56:53.036Z,33
2017-11-09T11:06:52.887Z,31
2017-11-09T11:16:53.033Z,32
2017-11-09T11:26:53.593Z,32
2017-11-09T11:36:52.983Z,33
2017-11-09T11:46:53.041Z,33
2017-11-09T11:56:53.148Z,32
2017-11-09T12:06:53.080Z,31
2017-11-09T12:16:52.980Z,33
2017-11-09T12:26:53.034Z,36
2017-11-09T12:36:53.001Z,37
2017-11-09T12:46:53.089Z,35
2017-11-09T12:56:53.044Z,39
2017-11-09T13:06:53.041Z,38
2017-11-09T13:16:53.110Z,34
2017-11-09T13:26:53.106Z,35
2017-11-09T13:36:53.205Z,40
2017-11-09T13:46:53.067Z,35
2017-11-09T13:56:53.259Z,35
2017-11-09T14:06:53.121Z,36
2017-11-09T14:16:53.132Z,37
2017-11-09T14:26:53.150Z,36
2017-11-09T14:36:53.250Z,35
2017-11-09T14:46:53.134Z,37
2017-11-09T14:56:53.185Z,36
2017-11-09T15:06:53.250Z,37
2017-11-09T15:16:53.248Z,40
2017-11-09T15:26:53.333Z,41
2017-11-09T15:36:54.290Z,53
2017-11-09T15:46:53.378Z,41
2017-11-09T15:56:53.354Z,41
2017-11-09T16:06:53.377Z,41
2017-11-09T16:16:53.467Z,41
2017-11-09T16:26:53.298Z,43
2017-11-09T16:36:53.714Z,42
2017-11-09T16:46:53.359Z,43
2017-11-09T16:56:53.262Z,45
2017-11-09T17:06:53.301Z,41
2017-11-09T17:16:53.448Z,41
2017-11-09T17:26:53.279Z,42
2017-11-09T17:36:53.313Z,40
2017-11-09T17:46:53.410Z,38
2017-11-09T17:56:53.328Z,40
2017-11-09T18:06:53.720Z,39
2017-11-09T18:16:53.330Z,37
2017-11-09T18:26:53.730Z,36
2017-11-09T18:36:53.892Z,36
2017-11-09T18:46:55.385Z,45
2017-11-09T18:56:54.541Z,35
2017-11-09T19:06:54.604Z,32
2017-11-09T19:17:00.016Z,33
2017-11-09T19:27:02.083Z,32
2017-11-09T19:37:19.507Z,31
2017-11-09T19:47:24.743Z,32
2017-11-09T19:57:09.020Z,33
2017-11-09T20:07:19.402Z,34
2017-11-09T20:17:11.954Z,34
2017-11-09T20:27:11.918Z,36
2017-11-09T20:37:16.222Z,46
2017-11-09T20:47:12.631Z,38
2017-11-09T20:57:03.780Z,37
2017-11-09T21:07:12.590Z,37
2017-11-09T21:17:07.647Z,36
2017-11-09T21:26:55.672Z,33
2017-11-09T21:36:55.359Z,30
2017-11-09T21:46:55.077Z,29
2017-11-09T22:07:06.943Z,25
2017-11-09T22:16:58.997Z,27
2017-11-09T22:26:54.043Z,26
2017-11-09T22:36:54.134Z,26
2017-11-09T22:46:53.776Z,24
2017-11-09T22:56:53.783Z,23
2017-11-09T23:06:54.814Z,21
2017-11-09T23:16:53.976Z,23
2017-11-09T23:26:53.906Z,24
2017-11-09T23:36:53.989Z,24
2017-11-09T23:46:53.702Z,21
2017-11-09T23:56:54.114Z,22
